createdAt,value
2018-10-16T00:00:15.085Z,98.18
2018-10-16T00:02:44.257Z,98.04
2018-10-16T00:05:12.839Z,98.22
2018-10-16T00:07:41.386Z,98.57
2018-10-16T00:10:10.494Z,98.63
2018-10-16T00:12:39.182Z,99.11
2018-10-16T00:15:09.305Z,100.00
2018-10-16T00:17:37.868Z,100.00
2018-10-16T00:20:07.219Z,100.00
2018-10-16T00:22:36.074Z,100.00
2018-10-16T00:25:04.634Z,100.00
2018-10-16T00:27:33.195Z,99.63
2018-10-16T00:30:01.779Z,100.00
2018-10-16T00:32:30.433Z,100.00
2018-10-16T00:34:58.966Z,100.00
2018-10-16T00:37:27.561Z,100.00
2018-10-16T00:39:56.097Z,100.00
2018-10-16T00:42:24.650Z,99.79
2018-10-16T00:44:53.193Z,99.57
2018-10-16T00:47:21.758Z,99.71
2018-10-16T00:49:50.295Z,99.96
2018-10-16T00:52:18.859Z,98.87
2018-10-16T00:54:47.438Z,98.87
2018-10-16T00:57:16.047Z,99.42
2018-10-16T00:59:57.778Z,100.00
2018-10-16T01:02:29.920Z,100.00
2018-10-16T01:04:58.582Z,99.77
2018-10-16T01:07:27.164Z,100.00
2018-10-16T01:09:55.700Z,100.00
2018-10-16T01:12:24.267Z,100.00
2018-10-16T01:14:52.790Z,100.00
2018-10-16T01:17:21.363Z,99.92
2018-10-16T01:19:49.889Z,99.63
2018-10-16T01:22:18.453Z,99.82
2018-10-16T01:24:46.977Z,100.00
2018-10-16T01:27:15.580Z,98.78
2018-10-16T01:29:44.118Z,98.59
2018-10-16T01:32:12.652Z,99.43
2018-10-16T01:34:42.249Z,99.54
2018-10-16T01:37:10.816Z,100.00
2018-10-16T01:39:39.376Z,100.00
2018-10-16T01:42:07.915Z,100.00
2018-10-16T01:44:36.494Z,100.00
2018-10-16T01:47:05.282Z,99.36
2018-10-16T01:49:33.839Z,99.32
2018-10-16T01:52:02.381Z,98.79
2018-10-16T01:54:30.937Z,99.66
2018-10-16T01:56:59.483Z,99.69
2018-10-16T01:59:28.054Z,100.00
2018-10-16T02:01:56.603Z,100.00
2018-10-16T02:04:25.157Z,99.67
2018-10-16T02:06:53.698Z,99.06
2018-10-16T02:09:23.015Z,99.50
2018-10-16T02:11:51.559Z,99.40
2018-10-16T02:14:20.117Z,99.72
2018-10-16T02:16:48.640Z,99.36
2018-10-16T02:19:17.204Z,98.92
2018-10-16T02:21:45.738Z,98.73
2018-10-16T02:24:14.367Z,98.60
2018-10-16T02:26:42.905Z,98.75
2018-10-16T02:29:11.472Z,99.38
2018-10-16T02:31:40.003Z,99.62
2018-10-16T02:34:08.537Z,99.75
2018-10-16T02:36:37.122Z,99.83
2018-10-16T02:39:08.208Z,99.97
2018-10-16T02:41:36.887Z,99.88
2018-10-16T02:44:06.253Z,99.84
2018-10-16T02:46:34.823Z,99.79
2018-10-16T02:49:03.352Z,99.43
2018-10-16T02:51:31.902Z,99.57
2018-10-16T02:54:00.440Z,99.76
2018-10-16T02:56:28.994Z,99.45
2018-10-16T02:58:57.543Z,99.33
2018-10-16T03:01:26.383Z,99.55
2018-10-16T03:03:54.917Z,99.85
2018-10-16T03:06:23.481Z,100.00
2018-10-16T03:08:52.055Z,100.00
2018-10-16T03:11:20.618Z,100.00
2018-10-16T03:13:49.154Z,99.96
2018-10-16T03:16:17.739Z,100.00
2018-10-16T03:18:46.281Z,99.84
2018-10-16T03:21:14.851Z,100.00
2018-10-16T03:23:43.377Z,100.00
2018-10-16T03:26:11.935Z,100.00
2018-10-16T03:28:40.473Z,100.00
2018-10-16T03:31:09.037Z,100.00
2018-10-16T03:33:37.599Z,99.80
2018-10-16T03:36:06.677Z,99.13
2018-10-16T03:38:35.249Z,98.56
2018-10-16T03:41:03.834Z,98.88
2018-10-16T03:43:32.399Z,99.11
2018-10-16T03:46:00.958Z,98.87
2018-10-16T03:48:29.483Z,98.70
2018-10-16T03:50:58.062Z,98.73
2018-10-16T03:53:26.717Z,98.89
2018-10-16T03:55:55.270Z,98.95
2018-10-16T03:58:23.798Z,99.12
2018-10-16T04:00:52.343Z,99.30
2018-10-16T04:03:20.862Z,99.08
2018-10-16T04:05:49.489Z,99.37
2018-10-16T04:08:18.063Z,100.00
2018-10-16T04:10:46.641Z,100.00
2018-10-16T04:13:15.205Z,100.00
2018-10-16T04:15:43.790Z,100.00
2018-10-16T04:18:12.319Z,100.00
2018-10-16T04:20:40.898Z,100.00
2018-10-16T04:23:09.406Z,100.00
2018-10-16T04:25:37.934Z,100.00
2018-10-16T04:28:06.704Z,99.84
2018-10-16T04:30:35.264Z,99.65
2018-10-16T04:33:03.757Z,99.71
2018-10-16T04:35:32.301Z,99.68
2018-10-16T04:38:00.833Z,100.00
2018-10-16T04:40:29.347Z,100.00
2018-10-16T04:42:57.886Z,100.00
2018-10-16T04:45:26.404Z,100.00
2018-10-16T04:47:54.959Z,100.00
2018-10-16T04:50:23.483Z,100.00
2018-10-16T04:52:52.025Z,100.00
2018-10-16T04:55:20.632Z,100.00
2018-10-16T04:57:49.121Z,100.00
2018-10-16T05:00:17.631Z,99.99
2018-10-16T05:02:46.221Z,99.73
2018-10-16T05:05:21.533Z,99.86
2018-10-16T05:07:50.771Z,99.38
2018-10-16T05:10:20.004Z,100.00
2018-10-16T05:12:48.638Z,100.00
2018-10-16T05:15:26.993Z,100.00
2018-10-16T05:17:55.935Z,100.00
2018-10-16T05:20:24.462Z,100.00
2018-10-16T05:22:53.345Z,100.00
2018-10-16T05:25:21.931Z,99.71
2018-10-16T05:27:50.525Z,100.00
2018-10-16T05:30:19.104Z,100.00
2018-10-16T05:32:47.691Z,100.00
2018-10-16T05:35:16.216Z,100.00
2018-10-16T05:37:44.767Z,100.00
2018-10-16T05:40:13.289Z,100.00
2018-10-16T05:42:41.819Z,100.00
2018-10-16T05:45:12.278Z,100.00
2018-10-16T05:47:41.983Z,100.00
2018-10-16T05:50:11.080Z,100.00
2018-10-16T05:52:39.630Z,99.92
2018-10-16T05:55:08.486Z,100.00
2018-10-16T05:57:37.082Z,100.00
2018-10-16T06:00:17.839Z,100.00
2018-10-16T06:02:47.455Z,100.00
2018-10-16T06:05:15.986Z,100.00
2018-10-16T06:07:44.956Z,100.00
2018-10-16T06:10:13.878Z,100.00
2018-10-16T06:12:42.442Z,99.45
2018-10-16T06:15:11.697Z,100.00
2018-10-16T06:17:40.223Z,100.00
2018-10-16T06:20:11.488Z,100.00
2018-10-16T06:22:40.095Z,100.00
2018-10-16T06:25:09.593Z,100.00
2018-10-16T06:27:38.422Z,100.00
2018-10-16T06:30:07.092Z,99.77
2018-10-16T06:32:35.973Z,99.90
2018-10-16T06:35:04.536Z,100.00
2018-10-16T06:37:33.079Z,99.17
2018-10-16T06:40:01.613Z,97.01
2018-10-16T06:42:30.132Z,97.23
2018-10-16T06:44:58.662Z,97.28
2018-10-16T06:47:27.275Z,98.17
2018-10-16T06:49:55.728Z,98.37
2018-10-16T06:52:24.254Z,97.70
2018-10-16T06:54:52.808Z,97.54
2018-10-16T06:57:21.334Z,97.17
2018-10-16T06:59:49.879Z,96.17
2018-10-16T07:02:18.392Z,95.28
2018-10-16T07:04:47.266Z,95.45
2018-10-16T07:07:15.993Z,96.61
2018-10-16T07:09:44.364Z,96.54
2018-10-16T07:12:12.904Z,96.17
2018-10-16T07:14:41.414Z,95.15
2018-10-16T07:17:09.955Z,94.82
2018-10-16T07:19:38.462Z,94.61
2018-10-16T07:22:10.165Z,95.15
2018-10-16T07:24:38.719Z,94.97
2018-10-16T07:27:07.273Z,93.91
2018-10-16T07:29:35.987Z,93.07
2018-10-16T07:32:05.366Z,91.66
2018-10-16T07:34:34.335Z,90.20
2018-10-16T07:37:02.948Z,88.75
2018-10-16T07:39:31.461Z,87.79
2018-10-16T07:42:00.054Z,88.25
2018-10-16T07:44:28.563Z,88.44
2018-10-16T07:46:57.146Z,87.99
2018-10-16T07:49:25.673Z,88.12
2018-10-16T07:51:54.237Z,87.65
2018-10-16T07:54:22.759Z,86.36
2018-10-16T07:56:51.598Z,84.90
2018-10-16T07:59:20.132Z,85.10
2018-10-16T08:01:49.258Z,84.72
2018-10-16T08:04:17.780Z,83.95
2018-10-16T08:06:46.345Z,84.13
2018-10-16T08:09:16.409Z,82.54
2018-10-16T08:11:50.028Z,81.95
2018-10-16T08:14:19.431Z,80.90
2018-10-16T08:16:49.302Z,80.59
2018-10-16T08:19:17.814Z,80.31
2018-10-16T08:21:47.241Z,81.79
2018-10-16T08:24:15.806Z,81.36
2018-10-16T08:26:44.366Z,80.37
2018-10-16T08:29:12.879Z,79.71
2018-10-16T08:31:41.396Z,79.55
2018-10-16T08:34:10.060Z,78.81
2018-10-16T08:36:38.561Z,77.87
2018-10-16T08:39:15.910Z,77.54
2018-10-16T08:41:57.011Z,76.54
2018-10-16T08:44:36.666Z,75.66
2018-10-16T08:47:16.532Z,74.31
2018-10-16T08:49:56.346Z,74.20
2018-10-16T08:52:24.886Z,73.88
2018-10-16T08:54:53.461Z,74.14
2018-10-16T08:57:21.945Z,72.74
2018-10-16T08:59:50.495Z,72.05
2018-10-16T09:02:19.003Z,71.79
2018-10-16T09:04:47.545Z,72.01
2018-10-16T09:07:16.070Z,73.12
2018-10-16T09:09:44.619Z,72.25
2018-10-16T09:12:13.133Z,71.46
2018-10-16T09:14:41.684Z,71.58
2018-10-16T09:17:10.284Z,71.47
2018-10-16T09:19:38.818Z,69.82
2018-10-16T09:22:07.360Z,70.34
2018-10-16T09:24:35.913Z,69.29
2018-10-16T09:27:04.457Z,69.81
2018-10-16T09:29:33.055Z,68.96
2018-10-16T09:32:01.618Z,69.01
2018-10-16T09:34:30.198Z,68.30
2018-10-16T09:36:58.733Z,68.49
2018-10-16T09:39:27.290Z,67.46
2018-10-16T09:41:55.822Z,67.28
2018-10-16T09:44:24.371Z,67.94
2018-10-16T09:46:52.892Z,67.52
2018-10-16T09:49:21.438Z,66.95
2018-10-16T09:51:49.950Z,66.41
2018-10-16T09:54:18.502Z,66.60
2018-10-16T09:56:47.015Z,67.21
2018-10-16T09:59:15.549Z,66.32
2018-10-16T10:01:46.476Z,65.96
2018-10-16T10:04:15.097Z,65.48
2018-10-16T10:06:43.626Z,65.47
2018-10-16T10:09:13.279Z,63.98
2018-10-16T10:11:42.221Z,64.10
2018-10-16T10:14:10.798Z,64.62
2018-10-16T10:16:39.644Z,64.20
2018-10-16T10:19:08.195Z,64.04
2018-10-16T10:21:36.818Z,64.13
2018-10-16T10:24:06.212Z,63.49
2018-10-16T10:26:34.777Z,63.09
2018-10-16T10:29:03.302Z,62.14
2018-10-16T10:31:31.855Z,61.95
2018-10-16T10:34:00.375Z,63.91
2018-10-16T10:36:28.925Z,63.60
2018-10-16T10:38:57.443Z,63.40
2018-10-16T10:41:25.977Z,62.92
2018-10-16T10:43:54.487Z,62.69
2018-10-16T10:46:23.041Z,63.54
2018-10-16T10:48:51.544Z,63.34
2018-10-16T10:51:20.434Z,64.59
2018-10-16T10:53:48.653Z,64.64
2018-10-16T10:56:17.202Z,64.18
2018-10-16T10:58:45.721Z,64.68
2018-10-16T11:01:14.258Z,65.36
2018-10-16T11:03:42.836Z,65.11
2018-10-16T11:06:11.334Z,66.62
2018-10-16T11:11:20.354Z,66.13
2018-10-16T11:13:48.879Z,65.61
2018-10-16T11:16:17.408Z,66.45
2018-10-16T11:18:45.898Z,66.20
2018-10-16T11:21:14.563Z,65.95
2018-10-16T11:23:43.002Z,65.19
2018-10-16T11:26:11.532Z,65.15
2018-10-16T11:28:40.039Z,65.19
2018-10-16T11:31:08.530Z,65.10
2018-10-16T11:33:37.061Z,64.60
2018-10-16T11:36:05.709Z,64.19
2018-10-16T11:38:34.246Z,63.57
2018-10-16T11:41:02.748Z,64.83
2018-10-16T11:43:31.277Z,64.54
2018-10-16T11:45:59.831Z,63.97
2018-10-16T11:48:28.374Z,63.48
2018-10-16T11:50:56.944Z,63.29
2018-10-16T11:53:25.540Z,63.04
2018-10-16T11:55:54.112Z,63.40
2018-10-16T11:58:22.661Z,62.38
2018-10-16T12:00:51.198Z,62.58
2018-10-16T12:03:19.737Z,61.62
2018-10-16T12:05:48.254Z,62.02
2018-10-16T12:08:16.882Z,61.21
2018-10-16T12:10:45.433Z,62.52
2018-10-16T12:13:14.038Z,62.31
2018-10-16T12:15:42.532Z,62.01
2018-10-16T12:18:16.467Z,61.74
2018-10-16T12:20:48.462Z,62.15
2018-10-16T12:23:17.012Z,61.44
2018-10-16T12:25:45.537Z,60.84
2018-10-16T12:28:14.100Z,61.45
2018-10-16T12:30:42.605Z,62.34
2018-10-16T12:33:11.236Z,62.29
2018-10-16T12:35:39.701Z,61.04
2018-10-16T12:38:08.271Z,59.62
2018-10-16T12:40:36.780Z,62.88
2018-10-16T12:43:05.596Z,60.58
2018-10-16T12:45:34.167Z,60.16
2018-10-16T12:48:02.754Z,60.63
2018-10-16T12:50:31.262Z,62.16
2018-10-16T12:52:59.830Z,60.30
2018-10-16T12:55:28.368Z,60.15
2018-10-16T12:57:56.934Z,60.06
2018-10-16T13:00:25.471Z,61.29
2018-10-16T13:02:54.020Z,60.58
2018-10-16T13:05:22.638Z,60.06
2018-10-16T13:07:51.213Z,61.04
2018-10-16T13:10:19.940Z,60.33
2018-10-16T13:12:48.500Z,61.75
2018-10-16T13:15:17.774Z,62.68
2018-10-16T13:17:46.317Z,60.81
2018-10-16T13:20:15.668Z,61.22
2018-10-16T13:22:45.570Z,60.45
2018-10-16T13:25:15.157Z,61.78
2018-10-16T13:27:43.769Z,61.16
2018-10-16T13:30:20.044Z,60.74
2018-10-16T13:32:49.533Z,61.29
2018-10-16T13:35:19.294Z,61.86
2018-10-16T13:37:48.400Z,61.89
2018-10-16T13:40:16.982Z,60.98
2018-10-16T13:42:45.680Z,62.35
2018-10-16T13:45:15.760Z,63.08
2018-10-16T13:47:44.283Z,64.60
2018-10-16T13:50:14.368Z,65.35
2018-10-16T13:52:43.158Z,64.43
2018-10-16T13:55:12.425Z,65.93
2018-10-16T13:57:41.486Z,65.74
2018-10-16T14:00:17.463Z,66.26
2018-10-16T14:02:47.295Z,67.24
2018-10-16T14:05:15.978Z,67.53
2018-10-16T14:07:44.582Z,63.75
2018-10-16T14:10:14.320Z,64.31
2018-10-16T14:12:43.842Z,65.29
2018-10-16T14:15:13.001Z,65.45
2018-10-16T14:17:41.561Z,66.62
2018-10-16T14:20:10.636Z,66.72
2018-10-16T14:22:40.318Z,65.27
2018-10-16T14:25:10.533Z,63.80
2018-10-16T14:27:39.471Z,64.97
2018-10-16T14:30:09.678Z,65.79
2018-10-16T14:32:38.345Z,65.79
2018-10-16T14:35:07.609Z,64.51
2018-10-16T14:37:36.233Z,65.37
2018-10-16T14:40:04.981Z,64.97
2018-10-16T14:42:33.479Z,67.27
2018-10-16T14:45:02.001Z,66.80
2018-10-16T14:47:30.544Z,67.81
2018-10-16T14:49:59.076Z,68.46
2018-10-16T14:52:27.620Z,68.52
2018-10-16T14:54:56.160Z,69.77
2018-10-16T14:57:24.725Z,70.17
2018-10-16T14:59:53.253Z,70.72
2018-10-16T15:02:21.817Z,70.91
2018-10-16T15:04:50.379Z,69.96
2018-10-16T15:07:19.019Z,70.56
2018-10-16T15:09:47.565Z,71.78
2018-10-16T15:12:16.135Z,71.49
2018-10-16T15:14:44.695Z,72.16
2018-10-16T15:17:13.264Z,73.05
2018-10-16T15:19:41.807Z,73.20
2018-10-16T15:22:10.462Z,73.71
2018-10-16T15:24:38.926Z,73.05
2018-10-16T15:27:07.501Z,73.41
2018-10-16T15:29:36.098Z,73.50
2018-10-16T15:32:04.735Z,73.78
2018-10-16T15:34:33.242Z,74.07
2018-10-16T15:37:01.790Z,73.98
2018-10-16T15:39:30.361Z,74.52
2018-10-16T15:41:58.938Z,73.93
2018-10-16T15:44:27.787Z,73.87
2018-10-16T15:46:56.330Z,73.93
2018-10-16T15:49:24.887Z,74.01
2018-10-16T15:51:53.579Z,74.16
2018-10-16T15:54:22.127Z,74.20
2018-10-16T15:56:50.706Z,73.85
2018-10-16T15:59:19.250Z,73.63
2018-10-16T16:01:47.784Z,74.42
2018-10-16T16:04:16.353Z,75.43
2018-10-16T16:06:44.874Z,76.57
2018-10-16T16:09:13.431Z,77.34
2018-10-16T16:11:41.984Z,77.65
2018-10-16T16:14:10.577Z,77.67
2018-10-16T16:16:39.081Z,78.62
2018-10-16T16:19:07.680Z,79.13
2018-10-16T16:21:36.236Z,79.30
2018-10-16T16:24:04.861Z,79.80
2018-10-16T16:26:33.410Z,79.97
2018-10-16T16:29:01.930Z,80.09
2018-10-16T16:31:30.475Z,79.89
2018-10-16T16:33:59.046Z,80.26
2018-10-16T16:36:27.588Z,80.46
2018-10-16T16:38:56.167Z,80.78
2018-10-16T16:41:24.723Z,80.67
2018-10-16T16:43:53.377Z,80.49
2018-10-16T16:46:21.846Z,80.71
2018-10-16T16:48:50.353Z,80.47
2018-10-16T16:51:18.920Z,80.86
2018-10-16T16:53:47.440Z,81.14
2018-10-16T16:56:16.066Z,81.15
2018-10-16T16:58:44.523Z,81.92
2018-10-16T17:01:13.072Z,82.39
2018-10-16T17:03:41.606Z,83.18
2018-10-16T17:06:10.147Z,84.26
2018-10-16T17:08:38.674Z,84.52
2018-10-16T17:11:07.311Z,84.57
2018-10-16T17:13:35.831Z,85.02
2018-10-16T17:16:04.392Z,85.53
2018-10-16T17:18:32.921Z,86.54
2018-10-16T17:21:01.464Z,86.51
2018-10-16T17:23:29.979Z,86.31
2018-10-16T17:25:58.694Z,85.85
2018-10-16T17:28:27.087Z,86.37
2018-10-16T17:30:55.588Z,86.79
2018-10-16T17:33:24.134Z,87.37
2018-10-16T17:35:52.651Z,87.74
2018-10-16T17:38:21.210Z,87.69
2018-10-16T17:40:49.734Z,87.86
2018-10-16T17:43:18.260Z,88.34
2018-10-16T17:45:46.764Z,89.31
2018-10-16T17:48:15.394Z,89.20
2018-10-16T17:50:43.872Z,89.31
2018-10-16T17:53:12.407Z,88.99
2018-10-16T17:55:40.915Z,88.04
2018-10-16T17:58:09.473Z,88.11
2018-10-16T18:00:38.004Z,88.24
2018-10-16T18:03:06.827Z,88.39
2018-10-16T18:05:35.335Z,89.20
2018-10-16T18:08:03.885Z,90.08
2018-10-16T18:10:32.397Z,90.36
2018-10-16T18:13:00.939Z,90.95
2018-10-16T18:15:29.465Z,91.13
2018-10-16T18:17:58.019Z,90.45
2018-10-16T18:20:26.528Z,90.46
2018-10-16T18:22:55.103Z,90.71
2018-10-16T18:25:23.618Z,91.48
2018-10-16T18:27:52.133Z,94.39
2018-10-16T18:30:20.690Z,95.38
2018-10-16T18:32:49.189Z,95.87
2018-10-16T18:35:17.727Z,95.72
2018-10-16T18:37:46.304Z,95.36
2018-10-16T18:40:15.157Z,95.22
2018-10-16T18:42:43.685Z,94.23
2018-10-16T18:45:13.669Z,93.54
2018-10-16T18:47:42.125Z,93.60
2018-10-16T18:50:11.902Z,94.13
2018-10-16T18:52:40.575Z,95.75
2018-10-16T18:55:10.850Z,95.93
2018-10-16T18:57:39.409Z,95.84
2018-10-16T19:00:10.313Z,95.86
2018-10-16T19:02:38.930Z,95.42
2018-10-16T19:05:08.433Z,94.30
2018-10-16T19:07:36.991Z,95.00
2018-10-16T19:10:06.294Z,96.15
2018-10-16T19:12:35.143Z,96.72
2018-10-16T19:15:03.811Z,96.94
2018-10-16T19:17:32.328Z,96.85
2018-10-16T19:20:00.936Z,96.56
2018-10-16T19:22:29.441Z,96.13
2018-10-16T19:24:57.990Z,95.60
2018-10-16T19:27:26.561Z,95.77
2018-10-16T19:29:55.123Z,96.63
2018-10-16T19:32:23.621Z,96.79
2018-10-16T19:34:52.139Z,97.02
2018-10-16T19:37:20.730Z,97.21
2018-10-16T19:39:49.313Z,97.91
2018-10-16T19:42:17.851Z,98.03
2018-10-16T19:44:46.397Z,98.50
2018-10-16T19:47:15.413Z,98.80
2018-10-16T19:49:43.920Z,98.91
2018-10-16T19:52:12.482Z,98.01
2018-10-16T19:54:41.029Z,97.35
2018-10-16T19:57:09.680Z,96.93
2018-10-16T19:59:38.130Z,96.86
2018-10-16T20:02:07.650Z,96.86
2018-10-16T20:04:36.283Z,97.61
2018-10-16T20:07:05.359Z,97.95
2018-10-16T20:09:34.839Z,97.73
2018-10-16T20:12:04.372Z,97.37
2018-10-16T20:14:33.000Z,97.25
2018-10-16T20:17:01.615Z,97.27
2018-10-16T20:19:30.518Z,97.18
2018-10-16T20:21:59.089Z,97.16
2018-10-16T20:24:27.666Z,97.91
2018-10-16T20:26:56.212Z,98.43
2018-10-16T20:29:24.746Z,98.74
2018-10-16T20:31:53.315Z,98.66
2018-10-16T20:34:21.823Z,98.68
2018-10-16T20:36:50.393Z,98.79
2018-10-16T20:39:19.083Z,98.65
2018-10-16T20:41:47.658Z,98.93
2018-10-16T20:44:16.186Z,98.81
2018-10-16T20:46:44.718Z,99.22
2018-10-16T20:49:13.326Z,99.28
2018-10-16T20:51:41.816Z,99.58
2018-10-16T20:54:10.333Z,99.80
2018-10-16T20:56:38.879Z,99.90
2018-10-16T20:59:07.387Z,100.00
2018-10-16T21:01:35.926Z,100.00
2018-10-16T21:04:04.782Z,100.00
2018-10-16T21:06:33.495Z,100.00
2018-10-16T21:09:01.882Z,100.00
2018-10-16T21:11:30.434Z,100.00
2018-10-16T21:13:58.954Z,100.00
2018-10-16T21:16:27.443Z,100.00
2018-10-16T21:18:55.973Z,100.00
2018-10-16T21:21:24.488Z,100.00
2018-10-16T21:23:53.029Z,100.00
2018-10-16T21:26:21.658Z,100.00
2018-10-16T21:28:50.205Z,100.00
2018-10-16T21:31:18.733Z,100.00
2018-10-16T21:33:47.269Z,100.00
2018-10-16T21:36:15.807Z,100.00
2018-10-16T21:38:44.349Z,100.00
2018-10-16T21:41:12.952Z,100.00
2018-10-16T21:43:41.538Z,100.00
2018-10-16T21:46:10.052Z,100.00
2018-10-16T21:48:38.578Z,100.00
2018-10-16T21:51:07.094Z,100.00
2018-10-16T21:53:35.609Z,100.00
2018-10-16T21:56:04.197Z,100.00
2018-10-16T21:58:32.729Z,100.00
2018-10-16T22:01:06.475Z,100.00
2018-10-16T22:03:35.027Z,100.00
2018-10-16T22:06:03.556Z,100.00
2018-10-16T22:08:32.090Z,100.00
2018-10-16T22:11:00.636Z,100.00
2018-10-16T22:13:29.180Z,100.00
2018-10-16T22:15:57.697Z,100.00
2018-10-16T22:18:26.236Z,100.00
2018-10-16T22:20:54.779Z,100.00
2018-10-16T22:23:23.312Z,100.00
2018-10-16T22:25:51.825Z,100.00
2018-10-16T22:28:20.393Z,100.00
2018-10-16T22:30:48.901Z,100.00
2018-10-16T22:33:17.440Z,100.00
2018-10-16T22:35:45.966Z,100.00
2018-10-16T22:38:14.493Z,100.00
2018-10-16T22:40:42.984Z,100.00
2018-10-16T22:43:11.583Z,100.00
2018-10-16T22:45:40.088Z,100.00
2018-10-16T22:48:08.638Z,100.00
2018-10-16T22:50:37.207Z,100.00
2018-10-16T22:53:05.877Z,100.00
2018-10-16T22:55:34.403Z,100.00
2018-10-16T22:58:02.942Z,100.00
2018-10-16T23:00:31.450Z,100.00
2018-10-16T23:02:59.989Z,100.00
2018-10-16T23:05:28.514Z,100.00
2018-10-16T23:07:57.069Z,100.00
2018-10-16T23:10:25.585Z,100.00
2018-10-16T23:13:00.851Z,100.00
2018-10-16T23:15:29.336Z,100.00
2018-10-16T23:17:57.879Z,100.00
2018-10-16T23:20:26.456Z,100.00
2018-10-16T23:22:55.148Z,100.00
2018-10-16T23:25:23.655Z,100.00
2018-10-16T23:27:52.249Z,100.00
2018-10-16T23:30:20.803Z,100.00
2018-10-16T23:32:49.423Z,100.00
2018-10-16T23:35:18.010Z,100.00
2018-10-16T23:37:46.531Z,100.00
2018-10-16T23:40:15.078Z,100.00
2018-10-16T23:42:43.599Z,100.00
2018-10-16T23:45:12.146Z,100.00
2018-10-16T23:47:40.669Z,100.00
2018-10-16T23:50:09.230Z,100.00
2018-10-16T23:52:37.746Z,100.00
2018-10-16T23:55:08.035Z,100.00
2018-10-16T23:57:36.544Z,100.00
